sensor_id;sensor_type;location;lat;lon;timestamp;pressure;altitude;pressure_sealevel;temperature;humidity
24962;BME280;12992;50.884;13.668;2023-05-08T00:01:42;98068.88;;;5.88;100.00
24962;BME280;12992;50.884;13.668;2023-05-08T00:04:07;98058.88;;;5.82;100.00
24962;BME280;12992;50.884;13.668;2023-05-08T00:06:32;98048.94;;;5.76;100.00
24962;BME280;12992;50.884;13.668;2023-05-08T00:08:58;98047.69;;;5.65;100.00
24962;BME280;12992;50.884;13.668;2023-05-08T00:11:23;98053.50;;;5.69;100.00
24962;BME280;12992;50.884;13.668;2023-05-08T00:13:48;98041.84;;;5.62;100.00
24962;BME280;12992;50.884;13.668;2023-05-08T00:16:14;98036.41;;;5.55;100.00
24962;BME280;12992;50.884;13.668;2023-05-08T00:18:39;98025.41;;;5.44;100.00
24962;BME280;12992;50.884;13.668;2023-05-08T00:21:05;98027.47;;;5.42;100.00
24962;BME280;12992;50.884;13.668;2023-05-08T00:23:30;98026.88;;;5.39;100.00
24962;BME280;12992;50.884;13.668;2023-05-08T00:25:56;98033.94;;;5.40;100.00
24962;BME280;12992;50.884;13.668;2023-05-08T00:28:21;98022.88;;;5.35;100.00
24962;BME280;12992;50.884;13.668;2023-05-08T00:30:47;98021.22;;;5.28;100.00
24962;BME280;12992;50.884;13.668;2023-05-08T00:33:12;98049.75;;;5.57;100.00
24962;BME280;12992;50.884;13.668;2023-05-08T00:35:37;98056.78;;;5.64;100.00
24962;BME280;12992;50.884;13.668;2023-05-08T00:38:05;98045.16;;;5.57;100.00
24962;BME280;12992;50.884;13.668;2023-05-08T00:40:31;98050.16;;;5.67;100.00
24962;BME280;12992;50.884;13.668;2023-05-08T00:42:56;98046.63;;;5.66;100.00
24962;BME280;12992;50.884;13.668;2023-05-08T00:45:21;98032.06;;;5.61;100.00
24962;BME280;12992;50.884;13.668;2023-05-08T00:47:48;98038.91;;;5.63;100.00
24962;BME280;12992;50.884;13.668;2023-05-08T00:50:14;98051.84;;;5.75;100.00
24962;BME280;12992;50.884;13.668;2023-05-08T00:52:39;98051.81;;;5.88;100.00
24962;BME280;12992;50.884;13.668;2023-05-08T00:55:05;98034.97;;;5.79;100.00
24962;BME280;12992;50.884;13.668;2023-05-08T00:57:32;98036.25;;;5.83;100.00
24962;BME280;12992;50.884;13.668;2023-05-08T01:00:00;98039.78;;;5.84;100.00
24962;BME280;12992;50.884;13.668;2023-05-08T01:02:27;98025.22;;;5.78;100.00
24962;BME280;12992;50.884;13.668;2023-05-08T01:04:55;98023.53;;;5.71;100.00
24962;BME280;12992;50.884;13.668;2023-05-08T01:07:21;98025.66;;;5.75;100.00
24962;BME280;12992;50.884;13.668;2023-05-08T01:09:46;98038.72;;;5.78;100.00
24962;BME280;12992;50.884;13.668;2023-05-08T01:12:19;98021.25;;;5.74;100.00
24962;BME280;12992;50.884;13.668;2023-05-08T01:15:04;98031.84;;;5.82;100.00
24962;BME280;12992;50.884;13.668;2023-05-08T01:20:38;98032.13;;;5.94;100.00
24962;BME280;12992;50.884;13.668;2023-05-08T01:32:18;97990.91;;;5.46;100.00
24962;BME280;12992;50.884;13.668;2023-05-08T01:37:29;97995.47;;;5.38;100.00
24962;BME280;12992;50.884;13.668;2023-05-08T01:45:44;98017.50;;;5.35;100.00
24962;BME280;12992;50.884;13.668;2023-05-08T01:48:14;98017.06;;;5.25;100.00
24962;BME280;12992;50.884;13.668;2023-05-08T01:50:57;98012.91;;;5.29;100.00
24962;BME280;12992;50.884;13.668;2023-05-08T01:53:28;98002.09;;;5.16;100.00
24962;BME280;12992;50.884;13.668;2023-05-08T01:55:59;98009.34;;;5.16;100.00
24962;BME280;12992;50.884;13.668;2023-05-08T01:58:29;98024.31;;;5.18;100.00
24962;BME280;12992;50.884;13.668;2023-05-08T02:00:57;98011.22;;;5.15;100.00
24962;BME280;12992;50.884;13.668;2023-05-08T02:03:24;98018.91;;;5.18;100.00
24962;BME280;12992;50.884;13.668;2023-05-08T02:05:50;97999.56;;;5.08;100.00
24962;BME280;12992;50.884;13.668;2023-05-08T02:08:20;98012.66;;;5.11;100.00
24962;BME280;12992;50.884;13.668;2023-05-08T02:10:48;98016.00;;;5.13;100.00
24962;BME280;12992;50.884;13.668;2023-05-08T02:13:15;98005.59;;;5.10;100.00
24962;BME280;12992;50.884;13.668;2023-05-08T02:15:45;98018.50;;;5.15;100.00
24962;BME280;12992;50.884;13.668;2023-05-08T02:18:11;98021.41;;;5.13;100.00
24962;BME280;12992;50.884;13.668;2023-05-08T02:20:39;98010.97;;;4.97;100.00
24962;BME280;12992;50.884;13.668;2023-05-08T02:23:05;98009.31;;;4.96;100.00
24962;BME280;12992;50.884;13.668;2023-05-08T02:25:31;98009.25;;;4.82;100.00
24962;BME280;12992;50.884;13.668;2023-05-08T02:27:57;98009.25;;;4.82;100.00
24962;BME280;12992;50.884;13.668;2023-05-08T02:30:24;98000.50;;;4.74;100.00
24962;BME280;12992;50.884;13.668;2023-05-08T02:32:51;98012.56;;;4.78;100.00
24962;BME280;12992;50.884;13.668;2023-05-08T02:35:19;97999.63;;;4.60;100.00
24962;BME280;12992;50.884;13.668;2023-05-08T02:37:49;97990.44;;;4.48;100.00
24962;BME280;12992;50.884;13.668;2023-05-08T02:40:16;97988.53;;;4.35;100.00
24962;BME280;12992;50.884;13.668;2023-05-08T02:42:42;97987.84;;;4.26;100.00
24962;BME280;12992;50.884;13.668;2023-05-08T02:45:10;97997.16;;;4.24;100.00
24962;BME280;12992;50.884;13.668;2023-05-08T02:48:32;97996.31;;;4.17;100.00
24962;BME280;12992;50.884;13.668;2023-05-08T02:50:54;98002.06;;;4.14;100.00
24962;BME280;12992;50.884;13.668;2023-05-08T02:53:31;97996.84;;;4.06;100.00
24962;BME280;12992;50.884;13.668;2023-05-08T02:56:08;97989.50;;;3.93;100.00
24962;BME280;12992;50.884;13.668;2023-05-08T02:58:48;97987.56;;;3.80;100.00
24962;BME280;12992;50.884;13.668;2023-05-08T03:01:27;98001.19;;;3.72;100.00
24962;BME280;12992;50.884;13.668;2023-05-08T03:04:03;97991.94;;;3.60;100.00
24962;BME280;12992;50.884;13.668;2023-05-08T03:06:35;97989.78;;;3.49;100.00
24962;BME280;12992;50.884;13.668;2023-05-08T03:09:04;97993.06;;;3.44;100.00
24962;BME280;12992;50.884;13.668;2023-05-08T03:11:37;97990.91;;;3.33;100.00
24962;BME280;12992;50.884;13.668;2023-05-08T03:14:05;97992.25;;;3.22;100.00
24962;BME280;12992;50.884;13.668;2023-05-08T03:16:35;97994.88;;;3.16;100.00
24962;BME280;12992;50.884;13.668;2023-05-08T03:19:06;97997.56;;;3.16;100.00
24962;BME280;12992;50.884;13.668;2023-05-08T03:21:35;97999.34;;;3.08;100.00
24962;BME280;12992;50.884;13.668;2023-05-08T03:24:02;98000.56;;;3.06;100.00
24962;BME280;12992;50.884;13.668;2023-05-08T03:26:29;97996.78;;;3.00;100.00
24962;BME280;12992;50.884;13.668;2023-05-08T03:28:55;98002.81;;;3.02;100.00
24962;BME280;12992;50.884;13.668;2023-05-08T03:31:25;98003.56;;;2.96;100.00
24962;BME280;12992;50.884;13.668;2023-05-08T03:33:54;98005.56;;;2.88;100.00
24962;BME280;12992;50.884;13.668;2023-05-08T03:36:21;97990.28;;;2.73;100.00
24962;BME280;12992;50.884;13.668;2023-05-08T03:38:48;98005.88;;;2.78;100.00
24962;BME280;12992;50.884;13.668;2023-05-08T03:41:14;98007.91;;;2.76;100.00
24962;BME280;12992;50.884;13.668;2023-05-08T03:43:40;98004.94;;;2.71;100.00
24962;BME280;12992;50.884;13.668;2023-05-08T03:46:06;98007.63;;;2.71;100.00
24962;BME280;12992;50.884;13.668;2023-05-08T03:48:32;98010.53;;;2.69;100.00
24962;BME280;12992;50.884;13.668;2023-05-08T03:51:03;98020.44;;;2.69;100.00
24962;BME280;12992;50.884;13.668;2023-05-08T03:53:31;98020.84;;;2.66;100.00
24962;BME280;12992;50.884;13.668;2023-05-08T03:55:57;98015.38;;;2.59;100.00
24962;BME280;12992;50.884;13.668;2023-05-08T03:58:30;98029.44;;;2.61;100.00
24962;BME280;12992;50.884;13.668;2023-05-08T04:01:02;98030.91;;;2.64;100.00
24962;BME280;12992;50.884;13.668;2023-05-08T04:03:52;98042.34;;;2.66;100.00
24962;BME280;12992;50.884;13.668;2023-05-08T04:06:28;98061.44;;;2.71;100.00
24962;BME280;12992;50.884;13.668;2023-05-08T04:09:21;98067.44;;;2.88;100.00
24962;BME280;12992;50.884;13.668;2023-05-08T04:12:02;98076.22;;;2.96;100.00
24962;BME280;12992;50.884;13.668;2023-05-08T04:14:37;98075.84;;;2.99;100.00
24962;BME280;12992;50.884;13.668;2023-05-08T04:17:09;98082.53;;;3.03;100.00
24962;BME280;12992;50.884;13.668;2023-05-08T04:19:38;98099.19;;;3.13;100.00
24962;BME280;12992;50.884;13.668;2023-05-08T04:22:09;98102.81;;;3.21;100.00
24962;BME280;12992;50.884;13.668;2023-05-08T04:24:43;98116.66;;;3.39;100.00
24962;BME280;12992;50.884;13.668;2023-05-08T04:27:11;98110.91;;;3.42;100.00
24962;BME280;12992;50.884;13.668;2023-05-08T04:29:38;98129.13;;;3.61;100.00
24962;BME280;12992;50.884;13.668;2023-05-08T04:32:04;98143.84;;;3.80;100.00
24962;BME280;12992;50.884;13.668;2023-05-08T04:34:31;98147.47;;;3.94;100.00
24962;BME280;12992;50.884;13.668;2023-05-08T04:36:57;98150.03;;;4.02;100.00
24962;BME280;12992;50.884;13.668;2023-05-08T04:39:23;98160.84;;;4.30;100.00
24962;BME280;12992;50.884;13.668;2023-05-08T04:41:49;98162.00;;;4.42;100.00
24962;BME280;12992;50.884;13.668;2023-05-08T04:44:16;98171.69;;;4.65;100.00
24962;BME280;12992;50.884;13.668;2023-05-08T04:46:42;98176.56;;;4.82;100.00
24962;BME280;12992;50.884;13.668;2023-05-08T04:49:07;98171.25;;;4.96;100.00
24962;BME280;12992;50.884;13.668;2023-05-08T04:51:33;98190.69;;;5.19;100.00
24962;BME280;12992;50.884;13.668;2023-05-08T04:53:58;98186.81;;;5.35;100.00
24962;BME280;12992;50.884;13.668;2023-05-08T04:56:24;98200.66;;;5.66;100.00
24962;BME280;12992;50.884;13.668;2023-05-08T04:58:51;98217.03;;;6.13;100.00
24962;BME280;12992;50.884;13.668;2023-05-08T05:01:17;98219.75;;;6.52;100.00
24962;BME280;12992;50.884;13.668;2023-05-08T05:03:43;98209.16;;;6.58;100.00
24962;BME280;12992;50.884;13.668;2023-05-08T05:06:08;98198.31;;;6.71;100.00
24962;BME280;12992;50.884;13.668;2023-05-08T05:08:34;98189.97;;;6.79;100.00
24962;BME280;12992;50.884;13.668;2023-05-08T05:10:59;98224.22;;;7.45;100.00
24962;BME280;12992;50.884;13.668;2023-05-08T05:13:25;98246.50;;;8.43;100.00
24962;BME280;12992;50.884;13.668;2023-05-08T05:15:51;98264.34;;;9.50;100.00
24962;BME280;12992;50.884;13.668;2023-05-08T05:18:19;98270.94;;;10.58;100.00
24962;BME280;12992;50.884;13.668;2023-05-08T05:20:45;98260.63;;;11.37;100.00
24962;BME280;12992;50.884;13.668;2023-05-08T05:23:11;98244.34;;;11.65;93.29
24962;BME280;12992;50.884;13.668;2023-05-08T05:25:37;98218.22;;;11.81;90.40
24962;BME280;12992;50.884;13.668;2023-05-08T05:28:03;98176.84;;;11.60;88.44
24962;BME280;12992;50.884;13.668;2023-05-08T05:30:29;98144.44;;;11.24;89.43
24962;BME280;12992;50.884;13.668;2023-05-08T05:32:54;98113.47;;;10.78;93.07
24962;BME280;12992;50.884;13.668;2023-05-08T05:35:19;98092.75;;;10.00;95.83
24962;BME280;12992;50.884;13.668;2023-05-08T05:37:45;98073.00;;;9.63;99.02
24962;BME280;12992;50.884;13.668;2023-05-08T05:40:10;98065.97;;;9.25;100.00
24962;BME280;12992;50.884;13.668;2023-05-08T05:42:38;98070.97;;;8.92;100.00
24962;BME280;12992;50.884;13.668;2023-05-08T05:45:03;98079.88;;;8.80;100.00
24962;BME280;12992;50.884;13.668;2023-05-08T05:47:30;98091.59;;;8.81;100.00
24962;BME280;12992;50.884;13.668;2023-05-08T05:49:56;98098.47;;;8.84;100.00
24962;BME280;12992;50.884;13.668;2023-05-08T05:52:22;98092.50;;;8.75;100.00
24962;BME280;12992;50.884;13.668;2023-05-08T05:54:47;98106.63;;;8.84;100.00
24962;BME280;12992;50.884;13.668;2023-05-08T05:57:13;98108.88;;;8.87;100.00
24962;BME280;12992;50.884;13.668;2023-05-08T05:59:39;98112.59;;;8.92;100.00
24962;BME280;12992;50.884;13.668;2023-05-08T06:02:06;98099.31;;;8.84;100.00
24962;BME280;12992;50.884;13.668;2023-05-08T06:04:34;98115.31;;;8.92;100.00
24962;BME280;12992;50.884;13.668;2023-05-08T06:07:00;98101.78;;;9.04;100.00
24962;BME280;12992;50.884;13.668;2023-05-08T06:09:25;98099.84;;;8.93;100.00
24962;BME280;12992;50.884;13.668;2023-05-08T06:11:50;98110.69;;;9.11;100.00
24962;BME280;12992;50.884;13.668;2023-05-08T06:14:16;98128.72;;;9.24;100.00
24962;BME280;12992;50.884;13.668;2023-05-08T06:16:41;98114.91;;;9.25;100.00
24962;BME280;12992;50.884;13.668;2023-05-08T06:19:08;98111.50;;;9.30;97.45
24962;BME280;12992;50.884;13.668;2023-05-08T06:21:34;98121.84;;;9.40;97.84
24962;BME280;12992;50.884;13.668;2023-05-08T06:23:59;98137.81;;;9.66;94.23
24962;BME280;12992;50.884;13.668;2023-05-08T06:26:24;98129.34;;;9.74;92.05
24962;BME280;12992;50.884;13.668;2023-05-08T06:28:50;98098.25;;;9.52;86.00
24962;BME280;12992;50.884;13.668;2023-05-08T06:31:15;98103.56;;;9.47;88.14
24962;BME280;12992;50.884;13.668;2023-05-08T06:33:40;98148.31;;;9.92;89.48
24962;BME280;12992;50.884;13.668;2023-05-08T06:36:06;98133.56;;;10.00;86.93
24962;BME280;12992;50.884;13.668;2023-05-08T06:38:31;98132.41;;;10.08;86.05
24962;BME280;12992;50.884;13.668;2023-05-08T06:40:57;98126.34;;;10.06;84.29
24962;BME280;12992;50.884;13.668;2023-05-08T06:43:22;98106.91;;;9.90;84.33
24962;BME280;12992;50.884;13.668;2023-05-08T06:45:47;98117.81;;;10.02;83.68
24962;BME280;12992;50.884;13.668;2023-05-08T06:48:13;98117.13;;;10.07;82.19
24962;BME280;12992;50.884;13.668;2023-05-08T06:50:39;98126.50;;;10.11;84.99
24962;BME280;12992;50.884;13.668;2023-05-08T06:53:05;98096.38;;;9.82;82.81
24962;BME280;12992;50.884;13.668;2023-05-08T06:55:31;98113.53;;;9.94;84.05
24962;BME280;12992;50.884;13.668;2023-05-08T06:57:56;98127.47;;;10.16;84.15
24962;BME280;12992;50.884;13.668;2023-05-08T07:00:22;98123.56;;;10.24;83.33
24962;BME280;12992;50.884;13.668;2023-05-08T07:02:47;98124.78;;;10.28;80.52
24962;BME280;12992;50.884;13.668;2023-05-08T07:05:12;98116.72;;;10.33;81.23
24962;BME280;12992;50.884;13.668;2023-05-08T07:07:38;98113.78;;;10.35;78.40
24962;BME280;12992;50.884;13.668;2023-05-08T07:10:03;98130.47;;;10.50;77.09
24962;BME280;12992;50.884;13.668;2023-05-08T07:12:29;98094.84;;;10.28;76.72
24962;BME280;12992;50.884;13.668;2023-05-08T07:14:54;98115.69;;;10.46;75.84
24962;BME280;12992;50.884;13.668;2023-05-08T07:17:19;98106.31;;;10.30;75.04
24962;BME280;12992;50.884;13.668;2023-05-08T07:19:49;98099.22;;;10.29;75.77
24962;BME280;12992;50.884;13.668;2023-05-08T07:22:14;98121.72;;;10.48;75.71
24962;BME280;12992;50.884;13.668;2023-05-08T07:24:39;98121.84;;;10.65;74.69
24962;BME280;12992;50.884;13.668;2023-05-08T07:27:05;98128.59;;;10.74;72.53
24962;BME280;12992;50.884;13.668;2023-05-08T07:29:30;98117.00;;;10.67;73.54
24962;BME280;12992;50.884;13.668;2023-05-08T07:31:55;98118.19;;;10.71;72.82
24962;BME280;12992;50.884;13.668;2023-05-08T07:34:21;98113.56;;;10.71;73.96
24962;BME280;12992;50.884;13.668;2023-05-08T07:36:46;98139.75;;;10.84;73.46
24962;BME280;12992;50.884;13.668;2023-05-08T07:39:11;98133.69;;;11.05;74.15
24962;BME280;12992;50.884;13.668;2023-05-08T07:41:37;98149.56;;;11.09;76.46
24962;BME280;12992;50.884;13.668;2023-05-08T07:44:04;98133.22;;;11.09;72.25
24962;BME280;12992;50.884;13.668;2023-05-08T07:46:30;98118.88;;;11.01;73.03
24962;BME280;12992;50.884;13.668;2023-05-08T07:48:55;98149.16;;;11.40;70.45
24962;BME280;12992;50.884;13.668;2023-05-08T07:51:20;98173.63;;;11.75;70.63
24962;BME280;12992;50.884;13.668;2023-05-08T07:53:46;98146.31;;;11.87;68.16
24962;BME280;12992;50.884;13.668;2023-05-08T07:56:12;98191.84;;;12.43;67.63
24962;BME280;12992;50.884;13.668;2023-05-08T07:58:38;98191.47;;;12.68;67.52
24962;BME280;12992;50.884;13.668;2023-05-08T08:01:04;98166.28;;;12.66;67.17
24962;BME280;12992;50.884;13.668;2023-05-08T08:03:29;98211.31;;;13.14;65.17
24962;BME280;12992;50.884;13.668;2023-05-08T08:05:55;98206.19;;;13.35;65.41
24962;BME280;12992;50.884;13.668;2023-05-08T08:08:20;98208.47;;;13.43;67.38
24962;BME280;12992;50.884;13.668;2023-05-08T08:10:45;98220.50;;;13.80;64.31
24962;BME280;12992;50.884;13.668;2023-05-08T08:13:11;98200.16;;;13.98;62.48
24962;BME280;12992;50.884;13.668;2023-05-08T08:15:36;98204.88;;;14.30;61.37
24962;BME280;12992;50.884;13.668;2023-05-08T08:18:01;98202.56;;;14.43;61.40
24962;BME280;12992;50.884;13.668;2023-05-08T08:20:26;98207.78;;;14.72;59.64
24962;BME280;12992;50.884;13.668;2023-05-08T08:22:52;98231.53;;;15.20;61.15
24962;BME280;12992;50.884;13.668;2023-05-08T08:25:17;98281.31;;;16.34;58.42
24962;BME280;12992;50.884;13.668;2023-05-08T08:27:43;98281.50;;;17.41;54.22
24962;BME280;12992;50.884;13.668;2023-05-08T08:30:08;98240.00;;;18.17;51.83
24962;BME280;12992;50.884;13.668;2023-05-08T08:32:33;98321.88;;;19.94;52.83
24962;BME280;12992;50.884;13.668;2023-05-08T08:34:59;98286.06;;;21.31;45.91
24962;BME280;12992;50.884;13.668;2023-05-08T08:37:24;98197.72;;;20.78;46.30
24962;BME280;12992;50.884;13.668;2023-05-08T08:39:50;98209.34;;;21.26;45.61
24962;BME280;12992;50.884;13.668;2023-05-08T08:42:15;98188.94;;;20.89;44.90
24962;BME280;12992;50.884;13.668;2023-05-08T08:44:41;98207.56;;;20.84;46.78
24962;BME280;12992;50.884;13.668;2023-05-08T08:47:09;98184.91;;;20.82;46.16
24962;BME280;12992;50.884;13.668;2023-05-08T08:49:47;98201.31;;;21.30;44.92
24962;BME280;12992;50.884;13.668;2023-05-08T08:52:38;98237.72;;;21.97;44.56
24962;BME280;12992;50.884;13.668;2023-05-08T08:55:06;98132.88;;;21.11;45.72
24962;BME280;12992;50.884;13.668;2023-05-08T08:57:35;98208.25;;;21.87;44.08
24962;BME280;12992;50.884;13.668;2023-05-08T09:00:05;98209.91;;;22.16;43.77
24962;BME280;12992;50.884;13.668;2023-05-08T09:02:31;98216.41;;;22.61;43.34
24962;BME280;12992;50.884;13.668;2023-05-08T09:04:57;98171.84;;;22.44;43.16
24962;BME280;12992;50.884;13.668;2023-05-08T09:07:24;98156.19;;;22.12;43.37
24962;BME280;12992;50.884;13.668;2023-05-08T09:09:49;98127.63;;;21.42;44.09
24962;BME280;12992;50.884;13.668;2023-05-08T09:12:16;98083.84;;;20.98;44.46
24962;BME280;12992;50.884;13.668;2023-05-08T09:14:41;98133.47;;;21.41;43.24
24962;BME280;12992;50.884;13.668;2023-05-08T09:17:08;98134.53;;;20.80;45.50
24962;BME280;12992;50.884;13.668;2023-05-08T09:19:33;98153.38;;;21.10;45.81
24962;BME280;12992;50.884;13.668;2023-05-08T09:21:59;98152.28;;;21.58;44.90
24962;BME280;12992;50.884;13.668;2023-05-08T09:24:25;98138.41;;;22.26;43.34
24962;BME280;12992;50.884;13.668;2023-05-08T09:26:52;98104.53;;;21.74;41.94
24962;BME280;12992;50.884;13.668;2023-05-08T09:29:20;98043.13;;;20.99;42.54
24962;BME280;12992;50.884;13.668;2023-05-08T09:31:50;98159.72;;;22.40;40.94
24962;BME280;12992;50.884;13.668;2023-05-08T09:34:24;98094.94;;;22.08;39.68
24962;BME280;12992;50.884;13.668;2023-05-08T09:36:51;98053.25;;;20.89;42.21
24962;BME280;12992;50.884;13.668;2023-05-08T09:39:24;98100.63;;;21.62;41.89
24962;BME280;12992;50.884;13.668;2023-05-08T09:42:08;98162.06;;;22.82;43.87
24962;BME280;12992;50.884;13.668;2023-05-08T09:44:47;98110.28;;;22.64;39.63
24962;BME280;12992;50.884;13.668;2023-05-08T09:47:20;98064.53;;;22.03;39.33
24962;BME280;12992;50.884;13.668;2023-05-08T09:49:55;98057.91;;;21.76;41.86
24962;BME280;12992;50.884;13.668;2023-05-08T09:52:22;98078.03;;;22.32;39.37
24962;BME280;12992;50.884;13.668;2023-05-08T09:55:07;98097.22;;;22.42;40.60
24962;BME280;12992;50.884;13.668;2023-05-08T09:57:38;98108.94;;;22.98;38.36
24962;BME280;12992;50.884;13.668;2023-05-08T10:00:13;98073.69;;;22.84;38.66
24962;BME280;12992;50.884;13.668;2023-05-08T10:02:39;98056.16;;;22.30;39.10
24962;BME280;12992;50.884;13.668;2023-05-08T10:05:37;98057.22;;;22.43;39.62
24962;BME280;12992;50.884;13.668;2023-05-08T10:08:22;98088.91;;;22.65;40.95
24962;BME280;12992;50.884;13.668;2023-05-08T10:10:48;98076.03;;;22.46;38.80
24962;BME280;12992;50.884;13.668;2023-05-08T10:13:14;98050.97;;;22.38;38.81
24962;BME280;12992;50.884;13.668;2023-05-08T10:15:43;98055.16;;;22.26;40.27
24962;BME280;12992;50.884;13.668;2023-05-08T10:18:09;98055.00;;;22.31;41.64
24962;BME280;12992;50.884;13.668;2023-05-08T10:20:40;97979.47;;;20.66;43.27
24962;BME280;12992;50.884;13.668;2023-05-08T10:23:07;98016.75;;;21.15;40.39
24962;BME280;12992;50.884;13.668;2023-05-08T10:25:44;97993.47;;;20.88;40.12
24962;BME280;12992;50.884;13.668;2023-05-08T10:28:12;98002.28;;;20.90;40.85
24962;BME280;12992;50.884;13.668;2023-05-08T10:30:43;98042.09;;;21.63;41.31
24962;BME280;12992;50.884;13.668;2023-05-08T10:33:14;98063.19;;;22.14;40.81
24962;BME280;12992;50.884;13.668;2023-05-08T10:35:39;98072.16;;;22.78;38.52
24962;BME280;12992;50.884;13.668;2023-05-08T10:38:07;98004.25;;;22.09;38.30
24962;BME280;12992;50.884;13.668;2023-05-08T10:40:32;98054.31;;;22.71;39.34
24962;BME280;12992;50.884;13.668;2023-05-08T10:42:59;98070.91;;;23.46;38.20
24962;BME280;12992;50.884;13.668;2023-05-08T10:45:25;98017.00;;;22.85;39.24
24962;BME280;12992;50.884;13.668;2023-05-08T10:48:21;98033.31;;;23.09;39.60
24962;BME280;12992;50.884;13.668;2023-05-08T10:53:35;98042.53;;;23.76;37.73
24962;BME280;12992;50.884;13.668;2023-05-08T10:56:03;98026.53;;;23.90;37.86
24962;BME280;12992;50.884;13.668;2023-05-08T11:03:25;97960.78;;;22.80;38.14
24962;BME280;12992;50.884;13.668;2023-05-08T11:05:52;97998.88;;;23.28;40.64
24962;BME280;12992;50.884;13.668;2023-05-08T11:08:20;98075.31;;;24.82;38.94
24962;BME280;12992;50.884;13.668;2023-05-08T11:13:37;97983.50;;;24.30;37.72
24962;BME280;12992;50.884;13.668;2023-05-08T11:16:05;97954.03;;;23.78;36.43
24962;BME280;12992;50.884;13.668;2023-05-08T11:18:31;97986.06;;;23.66;38.47
24962;BME280;12992;50.884;13.668;2023-05-08T11:21:01;97960.06;;;23.62;37.28
24962;BME280;12992;50.884;13.668;2023-05-08T11:23:34;97944.16;;;23.45;39.46
24962;BME280;12992;50.884;13.668;2023-05-08T11:26:00;97950.91;;;23.05;40.64
24962;BME280;12992;50.884;13.668;2023-05-08T11:28:26;97916.56;;;22.92;37.44
24962;BME280;12992;50.884;13.668;2023-05-08T11:30:53;97937.69;;;23.10;37.64
24962;BME280;12992;50.884;13.668;2023-05-08T11:33:20;97977.09;;;23.61;38.07
24962;BME280;12992;50.884;13.668;2023-05-08T11:35:53;97986.09;;;24.01;40.05
24962;BME280;12992;50.884;13.668;2023-05-08T11:38:34;98024.81;;;25.01;38.08
24962;BME280;12992;50.884;13.668;2023-05-08T11:46:04;97934.78;;;24.63;35.79
24962;BME280;12992;50.884;13.668;2023-05-08T11:48:31;97954.69;;;24.82;36.07
24962;BME280;12992;50.884;13.668;2023-05-08T11:50:58;97912.41;;;24.42;35.49
24962;BME280;12992;50.884;13.668;2023-05-08T11:53:24;97880.00;;;22.68;40.94
24962;BME280;12992;50.884;13.668;2023-05-08T11:55:53;97884.31;;;22.82;37.46
24962;BME280;12992;50.884;13.668;2023-05-08T11:58:19;97896.88;;;23.28;37.78
24962;BME280;12992;50.884;13.668;2023-05-08T12:00:45;97957.13;;;23.93;39.94
24962;BME280;12992;50.884;13.668;2023-05-08T12:03:16;97922.56;;;24.20;36.67
24962;BME280;12992;50.884;13.668;2023-05-08T12:05:42;97946.53;;;24.77;37.31
24962;BME280;12992;50.884;13.668;2023-05-08T12:08:08;97873.84;;;23.54;37.41
24962;BME280;12992;50.884;13.668;2023-05-08T12:10:40;97908.06;;;23.80;38.54
24962;BME280;12992;50.884;13.668;2023-05-08T12:13:21;97873.34;;;23.34;38.59
24962;BME280;12992;50.884;13.668;2023-05-08T12:15:52;97850.50;;;22.41;39.06
24962;BME280;12992;50.884;13.668;2023-05-08T12:18:19;97872.72;;;22.41;40.02
24962;BME280;12992;50.884;13.668;2023-05-08T12:20:45;97845.94;;;21.83;40.14
24962;BME280;12992;50.884;13.668;2023-05-08T12:23:16;97855.84;;;21.75;41.47
24962;BME280;12992;50.884;13.668;2023-05-08T12:25:41;97856.94;;;21.96;41.01
24962;BME280;12992;50.884;13.668;2023-05-08T12:28:07;97853.41;;;22.04;39.49
24962;BME280;12992;50.884;13.668;2023-05-08T12:30:33;97852.97;;;21.89;41.04
24962;BME280;12992;50.884;13.668;2023-05-08T12:32:59;97830.72;;;21.80;40.07
24962;BME280;12992;50.884;13.668;2023-05-08T12:35:26;97842.66;;;21.58;40.80
24962;BME280;12992;50.884;13.668;2023-05-08T12:37:51;97853.25;;;21.56;40.65
24962;BME280;12992;50.884;13.668;2023-05-08T12:40:25;97856.09;;;22.10;38.82
24962;BME280;12992;50.884;13.668;2023-05-08T12:42:51;97846.94;;;21.87;38.97
24962;BME280;12992;50.884;13.668;2023-05-08T12:45:24;97834.00;;;21.37;38.24
24962;BME280;12992;50.884;13.668;2023-05-08T12:47:51;97842.16;;;21.56;39.64
24962;BME280;12992;50.884;13.668;2023-05-08T12:50:18;97879.63;;;22.52;41.09
24962;BME280;12992;50.884;13.668;2023-05-08T12:52:50;97864.38;;;22.80;39.63
24962;BME280;12992;50.884;13.668;2023-05-08T12:55:28;97844.59;;;22.73;38.72
24962;BME280;12992;50.884;13.668;2023-05-08T12:58:09;97837.63;;;22.36;39.38
24962;BME280;12992;50.884;13.668;2023-05-08T13:00:46;97825.91;;;22.48;38.78
24962;BME280;12992;50.884;13.668;2023-05-08T13:03:13;97846.59;;;22.81;39.91
24962;BME280;12992;50.884;13.668;2023-05-08T13:05:45;97825.41;;;22.46;39.32
24962;BME280;12992;50.884;13.668;2023-05-08T13:08:10;97835.44;;;22.64;38.78
24962;BME280;12992;50.884;13.668;2023-05-08T13:10:52;97836.44;;;22.77;39.59
24962;BME280;12992;50.884;13.668;2023-05-08T13:13:18;97829.81;;;23.04;39.08
24962;BME280;12992;50.884;13.668;2023-05-08T13:15:45;97850.94;;;23.48;38.07
24962;BME280;12992;50.884;13.668;2023-05-08T13:18:10;97791.53;;;22.35;38.18
24962;BME280;12992;50.884;13.668;2023-05-08T13:20:36;97789.00;;;20.41;39.09
24962;BME280;12992;50.884;13.668;2023-05-08T13:23:02;97795.03;;;19.55;40.57
24962;BME280;12992;50.884;13.668;2023-05-08T13:25:28;97781.59;;;18.78;41.08
24962;BME280;12992;50.884;13.668;2023-05-08T13:27:54;97788.31;;;18.48;42.49
24962;BME280;12992;50.884;13.668;2023-05-08T13:30:20;97790.44;;;18.32;42.52
24962;BME280;12992;50.884;13.668;2023-05-08T13:32:49;97790.91;;;18.16;44.05